Sparta, OH (43350)

3:47 AM EST on February 11, 2016 (GMT -0500)
Mt Liberty | | Change Station
CLOSE
Current Station
Personal Weather Station
Location: Centerburg, OH
Elevation: 1224 ft
Nearby Weather Stations

Elev 1224 ft 40.34 °N, 82.63 °W | Updated 13 seconds ago

Partly Cloudy
Partly Cloudy
9.7 °F
Feels Like 10 °F
N
0.7
Wind Variable Wind from North
Gusts 2.0 mph

Today
High -- | Low -- °F
--% Chance of Precip.
Yesterday
High -- | Low -- °F
Precip. -- in
Pressure 30.04 in
Visibility 10.0 miles
Clouds Scattered Clouds 2200 ft
Mostly Cloudy 2900 ft
Overcast 3400 ft
Windchill 10 °F
Dew Point -1 °F
Humidity 61%
Rainfall 0.00 in
Snow Depth Not available.
7:29 AM 6:00 PM
Waxing Crescent, 10% visible
METAR K4I3 110836Z AUTO 27009KT 10SM -SN SCT022 BKN029 OVC034 M10/M14 A3004 RMK AO2
Pressure 30.04 in
Visibility 10.0 miles
Clouds Scattered Clouds 2200 ft
Mostly Cloudy 2900 ft
Overcast 3400 ft
Windchill 10 °F
Dew Point -1 °F
Humidity 61%
Rainfall 0.00 in
Snow Depth Not available.
7:29 AM 6:00 PM
Waxing Crescent, 10% visible
METAR K4I3 110836Z AUTO 27009KT 10SM -SN SCT022 BKN029 OVC034 M10/M14 A3004 RMK AO2

10-Day Weather Forecast

Almanac

Astronomy

Feb. 11, 2016 Rise Set
Actual Time
Civil Twilight
Nautical Twilight
Astronomical Twilight
Moon
Length of Visible Light
Length of Day
Tomorrow will be .
, % of the Moon is Illuminated

Today's Extremes

State Highs State Lows

Community

WunderPhotos

Upload Photos

1,892,030 photos uploaded!

WunderBlog® & News

Nearby

Air Quality

  Air Quality AQ Index Pollutant
Not available.

Snow Depth

Station Depth Elevation

Earthquake Activity

City Distance Mag. Time & Date
Minimum magnitude displayed is 2.5.

Coastal Water Temperatures

Place Temperature

Stations

Nearby Weather Stations

Station Location Temp. Windchill Dew Point Humidity Wind Precip. Elev Updated Type
                   

Watches & Warnings

There are currently no watches in effect.